sensor_id;sensor_type;location;lat;lon;timestamp;pressure;altitude;pressure_sealevel;temperature;humidity
79118;BME280;68523;51.336;-0.846;2023-03-15T00:04:01;100509.58;;;1.9;99.5
79118;BME280;68523;51.336;-0.846;2023-03-15T00:09:04;100515.88;;;1.8;99.7
79118;BME280;68523;51.336;-0.846;2023-03-15T00:14:33;100524.23;;;1.9;99.6
79118;BME280;68523;51.336;-0.846;2023-03-15T00:19:38;100530.48;;;1.8;99.8
79118;BME280;68523;51.336;-0.846;2023-03-15T00:25:03;100543.31;;;1.9;99.7
79118;BME280;68523;51.336;-0.846;2023-03-15T00:30:07;100544.31;;;1.8;100.0
79118;BME280;68523;51.336;-0.846;2023-03-15T00:35:39;100555.54;;;1.8;99.7
79118;BME280;68523;51.336;-0.846;2023-03-15T00:40:37;100562.91;;;1.8;99.7
79118;BME280;68523;51.336;-0.846;2023-03-15T00:46:06;100566.10;;;1.7;99.9
79118;BME280;68523;51.336;-0.846;2023-03-15T00:51:35;100567.17;;;1.8;99.3
79118;BME280;68523;51.336;-0.846;2023-03-15T00:56:38;100564.16;;;1.7;98.9
79118;BME280;68523;51.336;-0.846;2023-03-15T01:02:03;100562.92;;;1.6;99.2
79118;BME280;68523;51.336;-0.846;2023-03-15T01:07:06;100572.23;;;1.5;99.6
79118;BME280;68523;51.336;-0.846;2023-03-15T01:12:35;100566.82;;;1.4;100.0
79118;BME280;68523;51.336;-0.846;2023-03-15T01:17:37;100584.12;;;1.3;100.0
79118;BME280;68523;51.336;-0.846;2023-03-15T01:23:01;100585.05;;;1.4;100.0
79118;BME280;68523;51.336;-0.846;2023-03-15T01:28:04;100590.73;;;1.4;100.0
79118;BME280;68523;51.336;-0.846;2023-03-15T01:33:33;100595.28;;;1.4;100.0
79118;BME280;68523;51.336;-0.846;2023-03-15T01:38:36;100600.15;;;1.5;99.9
79118;BME280;68523;51.336;-0.846;2023-03-15T01:44:10;100603.02;;;1.7;98.7
79118;BME280;68523;51.336;-0.846;2023-03-15T01:49:34;100614.94;;;1.7;97.7
79118;BME280;68523;51.336;-0.846;2023-03-15T01:54:40;100617.82;;;1.4;98.3
79118;BME280;68523;51.336;-0.846;2023-03-15T02:00:08;100627.18;;;1.3;99.1
79118;BME280;68523;51.336;-0.846;2023-03-15T02:05:35;100633.42;;;1.4;98.1
79118;BME280;68523;51.336;-0.846;2023-03-15T02:10:37;100625.69;;;1.3;98.4
79118;BME280;68523;51.336;-0.846;2023-03-15T02:16:05;100629.03;;;1.3;97.6
79118;BME280;68523;51.336;-0.846;2023-03-15T02:21:42;100638.86;;;1.2;97.5
79118;BME280;68523;51.336;-0.846;2023-03-15T02:27:05;100631.87;;;0.8;99.1
79118;BME280;68523;51.336;-0.846;2023-03-15T02:32:34;100632.37;;;0.9;99.7
79118;BME280;68523;51.336;-0.846;2023-03-15T02:37:37;100634.04;;;1.0;99.2
79118;BME280;68523;51.336;-0.846;2023-03-15T02:43:09;100636.22;;;1.1;98.5
79118;BME280;68523;51.336;-0.846;2023-03-15T02:48:37;100630.93;;;1.0;99.0
79118;BME280;68523;51.336;-0.846;2023-03-15T02:54:02;100634.49;;;1.3;95.6
79118;BME280;68523;51.336;-0.846;2023-03-15T02:59:05;100641.79;;;1.1;94.7
79118;BME280;68523;51.336;-0.846;2023-03-15T03:04:34;100643.47;;;0.8;96.3
79118;BME280;68523;51.336;-0.846;2023-03-15T03:09:36;100639.13;;;0.9;96.6
79118;BME280;68523;51.336;-0.846;2023-03-15T03:15:06;100637.88;;;0.4;98.5
79118;BME280;68523;51.336;-0.846;2023-03-15T03:20:36;100637.89;;;0.6;99.1
79118;BME280;68523;51.336;-0.846;2023-03-15T03:26:11;100649.59;;;0.5;99.5
79118;BME280;68523;51.336;-0.846;2023-03-15T03:31:35;100656.80;;;0.5;99.8
79118;BME280;68523;51.336;-0.846;2023-03-15T03:37:05;100667.90;;;0.7;99.8
79118;BME280;68523;51.336;-0.846;2023-03-15T03:42:34;100673.38;;;0.9;98.8
79118;BME280;68523;51.336;-0.846;2023-03-15T03:47:37;100689.75;;;0.9;97.2
79118;BME280;68523;51.336;-0.846;2023-03-15T03:53:01;100697.61;;;0.7;97.9
79118;BME280;68523;51.336;-0.846;2023-03-15T03:58:04;100694.05;;;0.7;97.7
79118;BME280;68523;51.336;-0.846;2023-03-15T04:03:32;100680.47;;;1.0;93.8
79118;BME280;68523;51.336;-0.846;2023-03-15T04:08:35;100686.34;;;0.6;95.4
79118;BME280;68523;51.336;-0.846;2023-03-15T04:14:05;100679.17;;;0.4;93.7
79118;BME280;68523;51.336;-0.846;2023-03-15T04:19:34;100673.64;;;0.4;93.2
79118;BME280;68523;51.336;-0.846;2023-03-15T04:24:37;100679.96;;;0.3;94.0
79118;BME280;68523;51.336;-0.846;2023-03-15T04:30:07;100674.55;;;0.2;95.0
79118;BME280;68523;51.336;-0.846;2023-03-15T04:35:37;100672.95;;;-0.1;93.9
79118;BME280;68523;51.336;-0.846;2023-03-15T04:41:01;100664.59;;;-0.4;94.8
79118;BME280;68523;51.336;-0.846;2023-03-15T04:46:04;100682.43;;;-0.3;95.1
79118;BME280;68523;51.336;-0.846;2023-03-15T04:51:33;100685.53;;;-0.1;94.2
79118;BME280;68523;51.336;-0.846;2023-03-15T04:56:36;100698.48;;;0.1;94.6
79118;BME280;68523;51.336;-0.846;2023-03-15T05:02:06;100699.71;;;-0.0;94.6
79118;BME280;68523;51.336;-0.846;2023-03-15T05:07:35;100701.04;;;-0.3;96.3
79118;BME280;68523;51.336;-0.846;2023-03-15T05:13:05;100701.15;;;-0.4;96.0
79118;BME280;68523;51.336;-0.846;2023-03-15T05:18:34;100692.71;;;-0.6;97.5
79118;BME280;68523;51.336;-0.846;2023-03-15T05:23:37;100703.36;;;-0.6;97.7
79118;BME280;68523;51.336;-0.846;2023-03-15T05:29:01;100709.45;;;-0.9;97.3
79118;BME280;68523;51.336;-0.846;2023-03-15T05:34:04;100714.43;;;-0.6;97.8
79118;BME280;68523;51.336;-0.846;2023-03-15T05:39:34;100716.55;;;-0.4;94.5
79118;BME280;68523;51.336;-0.846;2023-03-15T05:44:36;100720.20;;;-0.4;93.7
79118;BME280;68523;51.336;-0.846;2023-03-15T05:50:06;100722.76;;;-0.3;92.6
79118;BME280;68523;51.336;-0.846;2023-03-15T05:55:35;100722.50;;;-0.4;92.5
79118;BME280;68523;51.336;-0.846;2023-03-15T06:01:05;100719.39;;;-0.9;94.0
79118;BME280;68523;51.336;-0.846;2023-03-15T06:06:34;100731.13;;;-0.9;96.2
79118;BME280;68523;51.336;-0.846;2023-03-15T06:11:37;100733.96;;;-0.6;97.1
79118;BME280;68523;51.336;-0.846;2023-03-15T06:17:02;100742.44;;;-0.6;97.2
79118;BME280;68523;51.336;-0.846;2023-03-15T06:22:05;100746.06;;;-0.3;96.6
79118;BME280;68523;51.336;-0.846;2023-03-15T06:27:34;100744.54;;;-0.2;95.0
79118;BME280;68523;51.336;-0.846;2023-03-15T06:32:37;100743.87;;;-0.1;94.3
79118;BME280;68523;51.336;-0.846;2023-03-15T06:38:01;100748.70;;;-0.0;95.6
79118;BME280;68523;51.336;-0.846;2023-03-15T06:43:05;100752.04;;;-0.1;96.5
79118;BME280;68523;51.336;-0.846;2023-03-15T06:48:34;100758.19;;;0.1;96.2
79118;BME280;68523;51.336;-0.846;2023-03-15T06:53:37;100764.27;;;0.5;94.5
79118;BME280;68523;51.336;-0.846;2023-03-15T06:59:06;100766.88;;;0.9;93.7
79118;BME280;68523;51.336;-0.846;2023-03-15T07:04:35;100775.94;;;0.8;93.9
79118;BME280;68523;51.336;-0.846;2023-03-15T07:10:05;100783.14;;;0.8;94.9
79118;BME280;68523;51.336;-0.846;2023-03-15T07:15:35;100791.98;;;0.8;95.8
79118;BME280;68523;51.336;-0.846;2023-03-15T07:21:05;100795.94;;;1.2;94.5
79118;BME280;68523;51.336;-0.846;2023-03-15T07:26:34;100797.78;;;1.3;94.1
79118;BME280;68523;51.336;-0.846;2023-03-15T07:31:36;100795.97;;;1.3;94.0
79118;BME280;68523;51.336;-0.846;2023-03-15T07:37:05;100799.84;;;1.8;93.4
79118;BME280;68523;51.336;-0.846;2023-03-15T07:42:34;100799.53;;;2.1;91.5
79118;BME280;68523;51.336;-0.846;2023-03-15T07:47:37;100796.64;;;1.9;92.7
79118;BME280;68523;51.336;-0.846;2023-03-15T07:53:06;100790.79;;;2.0;93.7
79118;BME280;68523;51.336;-0.846;2023-03-15T07:58:35;100796.27;;;2.5;92.8
79118;BME280;68523;51.336;-0.846;2023-03-15T08:03:38;100797.48;;;2.7;92.0
79118;BME280;68523;51.336;-0.846;2023-03-15T08:09:02;100802.05;;;2.2;93.5
79118;BME280;68523;51.336;-0.846;2023-03-15T08:14:04;100799.79;;;2.8;93.6
79118;BME280;68523;51.336;-0.846;2023-03-15T08:19:33;100800.79;;;3.4;91.6
79118;BME280;68523;51.336;-0.846;2023-03-15T08:24:36;100801.19;;;4.0;88.4
79118;BME280;68523;51.336;-0.846;2023-03-15T08:30:07;100808.48;;;4.4;88.0
79118;BME280;68523;51.336;-0.846;2023-03-15T08:35:36;100804.94;;;4.7;86.4
79118;BME280;68523;51.336;-0.846;2023-03-15T08:41:05;100801.93;;;4.4;87.0
79118;BME280;68523;51.336;-0.846;2023-03-15T08:46:34;100808.15;;;5.3;83.6
79118;BME280;68523;51.336;-0.846;2023-03-15T08:51:37;100807.21;;;5.0;83.2
79118;BME280;68523;51.336;-0.846;2023-03-15T08:57:01;100799.89;;;5.2;82.9
79118;BME280;68523;51.336;-0.846;2023-03-15T09:02:04;100801.15;;;5.5;81.9
79118;BME280;68523;51.336;-0.846;2023-03-15T09:07:33;100794.38;;;5.2;80.9
79118;BME280;68523;51.336;-0.846;2023-03-15T09:12:36;100791.10;;;5.2;82.4
79118;BME280;68523;51.336;-0.846;2023-03-15T09:18:05;100791.97;;;5.5;79.6
79118;BME280;68523;51.336;-0.846;2023-03-15T09:23:34;100796.20;;;5.4;79.6
79118;BME280;68523;51.336;-0.846;2023-03-15T09:28:37;100797.22;;;5.5;78.5
79118;BME280;68523;51.336;-0.846;2023-03-15T09:34:02;100797.94;;;4.9;79.4
79118;BME280;68523;51.336;-0.846;2023-03-15T09:39:05;100797.41;;;5.0;80.0
79118;BME280;68523;51.336;-0.846;2023-03-15T09:44:40;100803.03;;;5.8;79.2
79118;BME280;68523;51.336;-0.846;2023-03-15T09:50:11;100806.29;;;5.3;79.5
79118;BME280;68523;51.336;-0.846;2023-03-15T09:55:35;100811.70;;;5.6;77.5
79118;BME280;68523;51.336;-0.846;2023-03-15T10:01:06;100812.18;;;5.9;75.8
79118;BME280;68523;51.336;-0.846;2023-03-15T10:06:36;100817.60;;;6.3;74.0
79118;BME280;68523;51.336;-0.846;2023-03-15T10:11:44;100811.96;;;6.1;74.8
79118;BME280;68523;51.336;-0.846;2023-03-15T10:17:10;100816.93;;;6.2;74.8
79118;BME280;68523;51.336;-0.846;2023-03-15T10:22:39;100825.75;;;6.2;74.0
79118;BME280;68523;51.336;-0.846;2023-03-15T10:27:39;100831.04;;;5.8;76.1
79118;BME280;68523;51.336;-0.846;2023-03-15T10:32:41;100826.87;;;6.2;76.1
79118;BME280;68523;51.336;-0.846;2023-03-15T10:38:13;100829.54;;;6.2;73.1
79118;BME280;68523;51.336;-0.846;2023-03-15T10:43:37;100828.94;;;6.0;73.3
79118;BME280;68523;51.336;-0.846;2023-03-15T10:49:10;100824.00;;;6.4;70.5
79118;BME280;68523;51.336;-0.846;2023-03-15T10:54:34;100823.90;;;6.8;71.7
79118;BME280;68523;51.336;-0.846;2023-03-15T10:59:37;100824.17;;;6.7;70.4
79118;BME280;68523;51.336;-0.846;2023-03-15T11:05:15;100820.41;;;6.4;72.6
79118;BME280;68523;51.336;-0.846;2023-03-15T11:10:35;100813.56;;;6.3;69.5
79118;BME280;68523;51.336;-0.846;2023-03-15T11:16:07;100807.90;;;6.4;70.0
79118;BME280;68523;51.336;-0.846;2023-03-15T11:21:35;100801.71;;;7.0;68.7
79118;BME280;68523;51.336;-0.846;2023-03-15T11:27:11;100801.34;;;6.6;67.8
79118;BME280;68523;51.336;-0.846;2023-03-15T11:32:36;100793.86;;;7.0;65.8
79118;BME280;68523;51.336;-0.846;2023-03-15T11:38:10;100785.83;;;8.2;64.2
79118;BME280;68523;51.336;-0.846;2023-03-15T11:43:47;100784.75;;;8.1;65.4
79118;BME280;68523;51.336;-0.846;2023-03-15T11:49:05;100785.09;;;7.7;64.5
79118;BME280;68523;51.336;-0.846;2023-03-15T11:54:10;100779.76;;;8.0;65.3
79118;BME280;68523;51.336;-0.846;2023-03-15T11:59:37;100776.98;;;7.9;66.6
79118;BME280;68523;51.336;-0.846;2023-03-15T12:05:06;100776.87;;;8.3;65.9
79118;BME280;68523;51.336;-0.846;2023-03-15T12:10:42;100778.06;;;7.5;67.9
79118;BME280;68523;51.336;-0.846;2023-03-15T12:16:05;100763.19;;;7.5;67.9
79118;BME280;68523;51.336;-0.846;2023-03-15T12:21:09;100761.53;;;7.9;67.3
79118;BME280;68523;51.336;-0.846;2023-03-15T12:26:40;100761.55;;;8.1;67.1
79118;BME280;68523;51.336;-0.846;2023-03-15T12:32:10;100758.18;;;8.2;66.3
79118;BME280;68523;51.336;-0.846;2023-03-15T12:37:41;100749.43;;;7.2;69.4
79118;BME280;68523;51.336;-0.846;2023-03-15T12:43:06;100739.18;;;7.3;69.1
79118;BME280;68523;51.336;-0.846;2023-03-15T12:48:35;100736.27;;;7.5;69.6
79118;BME280;68523;51.336;-0.846;2023-03-15T12:53:44;100737.92;;;7.8;67.7
79118;BME280;68523;51.336;-0.846;2023-03-15T12:59:11;100740.01;;;7.6;69.2
79118;BME280;68523;51.336;-0.846;2023-03-15T13:04:03;100741.57;;;7.7;68.7
79118;BME280;68523;51.336;-0.846;2023-03-15T13:09:47;100742.26;;;7.4;70.8
79118;BME280;68523;51.336;-0.846;2023-03-15T13:14:42;100740.65;;;7.5;69.5
79118;BME280;68523;51.336;-0.846;2023-03-15T13:20:15;100733.54;;;7.5;69.6
79118;BME280;68523;51.336;-0.846;2023-03-15T13:25:08;100723.74;;;7.4;70.4
79118;BME280;68523;51.336;-0.846;2023-03-15T13:35:41;100705.91;;;7.5;70.6
79118;BME280;68523;51.336;-0.846;2023-03-15T13:41:15;100690.15;;;8.0;70.2
79118;BME280;68523;51.336;-0.846;2023-03-15T13:46:34;100676.36;;;7.1;71.5
79118;BME280;68523;51.336;-0.846;2023-03-15T13:51:38;100670.34;;;7.6;70.3
79118;BME280;68523;51.336;-0.846;2023-03-15T13:57:05;100670.34;;;7.6;70.4
79118;BME280;68523;51.336;-0.846;2023-03-15T14:02:05;100658.52;;;7.2;72.0
79118;BME280;68523;51.336;-0.846;2023-03-15T14:07:36;100653.89;;;7.5;73.9
79118;BME280;68523;51.336;-0.846;2023-03-15T14:13:21;100647.49;;;7.3;76.2
79118;BME280;68523;51.336;-0.846;2023-03-15T14:18:36;100641.34;;;7.1;77.0
79118;BME280;68523;51.336;-0.846;2023-03-15T14:23:39;100640.12;;;7.6;77.6
79118;BME280;68523;51.336;-0.846;2023-03-15T14:29:06;100632.38;;;7.8;76.6
79118;BME280;68523;51.336;-0.846;2023-03-15T14:34:08;100627.87;;;7.9;75.7
79118;BME280;68523;51.336;-0.846;2023-03-15T14:39:39;100620.52;;;7.7;75.6
79118;BME280;68523;51.336;-0.846;2023-03-15T14:44:37;100616.86;;;7.8;76.9
79118;BME280;68523;51.336;-0.846;2023-03-15T14:50:01;100615.08;;;7.7;75.5
79118;BME280;68523;51.336;-0.846;2023-03-15T14:55:04;100609.18;;;7.9;76.1
79118;BME280;68523;51.336;-0.846;2023-03-15T15:00:33;100604.43;;;7.6;77.3
79118;BME280;68523;51.336;-0.846;2023-03-15T15:05:36;100608.54;;;7.2;80.3
79118;BME280;68523;51.336;-0.846;2023-03-15T15:11:06;100601.46;;;7.3;81.6
79118;BME280;68523;51.336;-0.846;2023-03-15T15:16:35;100596.70;;;7.3;83.5
79118;BME280;68523;51.336;-0.846;2023-03-15T15:22:05;100593.35;;;7.2;83.8
79118;BME280;68523;51.336;-0.846;2023-03-15T15:27:34;100584.64;;;6.9;85.2
79118;BME280;68523;51.336;-0.846;2023-03-15T15:32:36;100582.18;;;7.1;85.6
79118;BME280;68523;51.336;-0.846;2023-03-15T15:38:08;100572.45;;;7.3;84.6
79118;BME280;68523;51.336;-0.846;2023-03-15T15:43:33;100572.39;;;7.5;85.6
79118;BME280;68523;51.336;-0.846;2023-03-15T15:48:36;100566.11;;;7.0;87.9
79118;BME280;68523;51.336;-0.846;2023-03-15T15:54:06;100552.71;;;7.1;88.8
79118;BME280;68523;51.336;-0.846;2023-03-15T15:59:34;100549.09;;;6.9;89.2
79118;BME280;68523;51.336;-0.846;2023-03-15T16:04:37;100543.09;;;6.8;90.3
79118;BME280;68523;51.336;-0.846;2023-03-15T16:10:09;100537.56;;;6.8;91.3
79118;BME280;68523;51.336;-0.846;2023-03-15T16:15:36;100544.36;;;6.9;91.7
79118;BME280;68523;51.336;-0.846;2023-03-15T16:21:05;100535.64;;;6.7;92.4
79118;BME280;68523;51.336;-0.846;2023-03-15T16:26:36;100531.55;;;6.7;92.2
79118;BME280;68523;51.336;-0.846;2023-03-15T16:32:10;100529.12;;;6.7;93.0
79118;BME280;68523;51.336;-0.846;2023-03-15T16:37:34;100521.25;;;6.6;93.9
79118;BME280;68523;51.336;-0.846;2023-03-15T16:42:37;100512.99;;;6.6;93.0
79118;BME280;68523;51.336;-0.846;2023-03-15T16:48:06;100503.08;;;6.4;93.4
79118;BME280;68523;51.336;-0.846;2023-03-15T16:53:35;100491.80;;;6.7;92.7
79118;BME280;68523;51.336;-0.846;2023-03-15T16:59:05;100491.03;;;7.0;92.1
79118;BME280;68523;51.336;-0.846;2023-03-15T17:04:34;100482.93;;;6.9;91.6
79118;BME280;68523;51.336;-0.846;2023-03-15T17:09:37;100477.75;;;6.6;92.4
79118;BME280;68523;51.336;-0.846;2023-03-15T17:15:06;100472.65;;;6.6;93.2
79118;BME280;68523;51.336;-0.846;2023-03-15T17:20:35;100470.02;;;6.6;92.9
79118;BME280;68523;51.336;-0.846;2023-03-15T17:26:07;100470.41;;;6.4;94.3
79118;BME280;68523;51.336;-0.846;2023-03-15T17:31:09;100467.55;;;6.3;95.4
79118;BME280;68523;51.336;-0.846;2023-03-15T17:36:35;100474.87;;;6.2;95.8
79118;BME280;68523;51.336;-0.846;2023-03-15T17:42:04;100470.81;;;6.3;95.6
79118;BME280;68523;51.336;-0.846;2023-03-15T17:47:34;100470.85;;;6.2;94.6
79118;BME280;68523;51.336;-0.846;2023-03-15T17:52:36;100474.72;;;6.1;95.0
79118;BME280;68523;51.336;-0.846;2023-03-15T17:58:11;100472.17;;;6.0;95.7
79118;BME280;68523;51.336;-0.846;2023-03-15T18:03:35;100472.80;;;5.8;95.7
79118;BME280;68523;51.336;-0.846;2023-03-15T18:09:04;100471.55;;;5.7;95.5
79118;BME280;68523;51.336;-0.846;2023-03-15T18:14:33;100460.85;;;5.8;95.4
79118;BME280;68523;51.336;-0.846;2023-03-15T18:19:36;100451.36;;;5.7;95.7
79118;BME280;68523;51.336;-0.846;2023-03-15T18:25:07;100442.74;;;5.6;95.9
79118;BME280;68523;51.336;-0.846;2023-03-15T18:30:36;100439.03;;;5.5;96.2
79118;BME280;68523;51.336;-0.846;2023-03-15T18:36:06;100434.67;;;5.8;95.5
79118;BME280;68523;51.336;-0.846;2023-03-15T18:41:36;100426.95;;;5.5;96.5
79118;BME280;68523;51.336;-0.846;2023-03-15T18:47:05;100418.44;;;5.5;97.8
79118;BME280;68523;51.336;-0.846;2023-03-15T18:52:34;100418.52;;;5.7;97.4
79118;BME280;68523;51.336;-0.846;2023-03-15T18:57:37;100417.20;;;5.7;97.3
79118;BME280;68523;51.336;-0.846;2023-03-15T19:03:06;100406.90;;;5.7;97.4
79118;BME280;68523;51.336;-0.846;2023-03-15T19:08:36;100403.06;;;5.7;98.1
79118;BME280;68523;51.336;-0.846;2023-03-15T19:14:06;100402.64;;;5.9;97.7
79118;BME280;68523;51.336;-0.846;2023-03-15T19:19:35;100394.73;;;5.9;97.9
79118;BME280;68523;51.336;-0.846;2023-03-15T19:24:37;100387.31;;;5.7;98.2
79118;BME280;68523;51.336;-0.846;2023-03-15T19:30:01;100376.99;;;5.8;98.5
79118;BME280;68523;51.336;-0.846;2023-03-15T19:35:05;100363.59;;;5.7;99.4
79118;BME280;68523;51.336;-0.846;2023-03-15T19:40:35;100360.71;;;5.7;98.6
79118;BME280;68523;51.336;-0.846;2023-03-15T19:45:37;100357.70;;;5.8;98.6
79118;BME280;68523;51.336;-0.846;2023-03-15T19:51:01;100356.29;;;5.7;98.4
79118;BME280;68523;51.336;-0.846;2023-03-15T19:56:05;100341.57;;;5.5;99.0
79118;BME280;68523;51.336;-0.846;2023-03-15T20:01:35;100336.80;;;5.9;98.2
79118;BME280;68523;51.336;-0.846;2023-03-15T20:06:38;100335.33;;;5.8;98.6
79118;BME280;68523;51.336;-0.846;2023-03-15T20:12:02;100335.10;;;5.7;98.8
79118;BME280;68523;51.336;-0.846;2023-03-15T20:17:05;100334.39;;;5.9;98.6
79118;BME280;68523;51.336;-0.846;2023-03-15T20:22:35;100336.93;;;5.9;98.4
79118;BME280;68523;51.336;-0.846;2023-03-15T20:27:38;100337.24;;;5.9;98.6
79118;BME280;68523;51.336;-0.846;2023-03-15T20:33:02;100320.04;;;5.8;98.8
79118;BME280;68523;51.336;-0.846;2023-03-15T20:38:05;100319.23;;;5.9;98.9
79118;BME280;68523;51.336;-0.846;2023-03-15T20:43:35;100323.57;;;5.9;98.9
79118;BME280;68523;51.336;-0.846;2023-03-15T20:49:05;100310.13;;;5.7;100.0
79118;BME280;68523;51.336;-0.846;2023-03-15T20:54:34;100311.53;;;5.8;100.0
79118;BME280;68523;51.336;-0.846;2023-03-15T20:59:38;100302.49;;;5.8;100.0
79118;BME280;68523;51.336;-0.846;2023-03-15T21:05:02;100292.43;;;5.9;100.0
79118;BME280;68523;51.336;-0.846;2023-03-15T21:10:05;100289.74;;;5.8;100.0
79118;BME280;68523;51.336;-0.846;2023-03-15T21:15:40;100292.75;;;5.9;100.0
79118;BME280;68523;51.336;-0.846;2023-03-15T21:20:38;100283.41;;;5.9;100.0
79118;BME280;68523;51.336;-0.846;2023-03-15T21:26:04;100276.17;;;6.0;100.0
79118;BME280;68523;51.336;-0.846;2023-03-15T21:31:03;100271.13;;;6.0;100.0
79118;BME280;68523;51.336;-0.846;2023-03-15T21:36:06;100272.21;;;6.0;100.0
79118;BME280;68523;51.336;-0.846;2023-03-15T21:41:36;100271.63;;;6.0;100.0
79118;BME280;68523;51.336;-0.846;2023-03-15T21:47:05;100267.64;;;6.0;100.0
79118;BME280;68523;51.336;-0.846;2023-03-15T21:52:34;100262.65;;;5.8;100.0
79118;BME280;68523;51.336;-0.846;2023-03-15T21:57:37;100261.96;;;5.8;100.0
79118;BME280;68523;51.336;-0.846;2023-03-15T22:03:06;100255.92;;;5.9;100.0
79118;BME280;68523;51.336;-0.846;2023-03-15T22:08:35;100244.98;;;5.8;100.0
79118;BME280;68523;51.336;-0.846;2023-03-15T22:13:38;100243.46;;;6.0;100.0
79118;BME280;68523;51.336;-0.846;2023-03-15T22:19:01;100236.71;;;6.0;100.0
79118;BME280;68523;51.336;-0.846;2023-03-15T22:24:05;100230.81;;;6.0;100.0
79118;BME280;68523;51.336;-0.846;2023-03-15T22:29:34;100221.07;;;6.1;100.0
79118;BME280;68523;51.336;-0.846;2023-03-15T22:34:37;100210.41;;;6.1;100.0
79118;BME280;68523;51.336;-0.846;2023-03-15T22:40:01;100200.04;;;6.0;100.0
79118;BME280;68523;51.336;-0.846;2023-03-15T22:45:05;100199.24;;;6.2;100.0
79118;BME280;68523;51.336;-0.846;2023-03-15T22:50:34;100198.64;;;6.1;100.0
79118;BME280;68523;51.336;-0.846;2023-03-15T22:55:37;100188.11;;;6.0;100.0
79118;BME280;68523;51.336;-0.846;2023-03-15T23:01:01;100186.20;;;6.2;100.0
79118;BME280;68523;51.336;-0.846;2023-03-15T23:06:04;100172.74;;;6.1;100.0
79118;BME280;68523;51.336;-0.846;2023-03-15T23:11:33;100173.69;;;6.2;100.0
79118;BME280;68523;51.336;-0.846;2023-03-15T23:16:36;100164.55;;;6.2;100.0
79118;BME280;68523;51.336;-0.846;2023-03-15T23:22:05;100158.53;;;6.3;100.0
79118;BME280;68523;51.336;-0.846;2023-03-15T23:27:35;100147.85;;;6.5;100.0
79118;BME280;68523;51.336;-0.846;2023-03-15T23:32:38;100143.64;;;6.5;100.0
79118;BME280;68523;51.336;-0.846;2023-03-15T23:38:01;100137.20;;;6.6;100.0
79118;BME280;68523;51.336;-0.846;2023-03-15T23:43:04;100135.51;;;6.6;100.0
79118;BME280;68523;51.336;-0.846;2023-03-15T23:48:34;100125.37;;;6.8;100.0
79118;BME280;68523;51.336;-0.846;2023-03-15T23:53:37;100118.13;;;6.8;100.0
79118;BME280;68523;51.336;-0.846;2023-03-15T23:59:01;100113.64;;;6.8;100.0
